Time;durP1;ratioP1;P1;durP2;ratioP2;P2;SDS_P1;SDS_P2;PMS_P1;PMS_P2;Temp;Humidity;BMP_temperature;BMP_pressure;BME280_temperature;BME280_humidity;BME280_pressure;Samples;Min_cycle;Max_cycle;Signal;HPM_P1;HPM_P2
2022/01/06 00:01:19;;;;;;;43.78;4.15;;;1.50;99.90;;;;;;5092070;28;20040;-43
2022/01/06 00:03:46;;;;;;;30.65;2.78;;;1.40;99.90;;;;;;5091753;28;20048;-44
2022/01/06 00:06:12;;;;;;;19.52;2.58;;;1.30;99.90;;;;;;5092288;28;20039;-44
2022/01/06 00:08:39;;;;;;;29.52;2.35;;;1.50;99.90;;;;;;5091809;28;20036;-44
2022/01/06 00:11:07;;;;;;;41.63;6.10;;;1.30;99.90;;;;;;5092055;28;20123;-44
2022/01/06 00:13:45;;;;;;;34.97;2.60;;;1.30;99.90;;;;;;5091309;28;20093;-44
2022/01/06 00:16:24;;;;;;;25.70;2.58;;;1.20;99.90;;;;;;5091774;28;20044;-44
2022/01/06 00:24:20;;;;;;;33.38;2.97;;;1.20;99.90;;;;;;5091351;28;20051;-44
2022/01/06 00:26:46;;;;;;;29.13;2.33;;;1.20;99.90;;;;;;5091460;28;20398;-45
2022/01/06 00:29:11;;;;;;;24.48;2.13;;;1.20;99.90;;;;;;5091707;28;20036;-44
2022/01/06 00:31:37;;;;;;;39.90;2.88;;;1.30;99.90;;;;;;5091155;28;20040;-45
2022/01/06 00:34:05;;;;;;;32.33;2.88;;;1.30;99.90;;;;;;5091098;28;20073;-44
2022/01/06 00:36:30;;;;;;;34.42;2.50;;;1.40;99.90;;;;;;5091279;28;20123;-45
2022/01/06 00:38:57;;;;;;;24.40;2.35;;;1.40;99.90;;;;;;5088760;28;20119;-44
2022/01/06 00:41:23;;;;;;;35.78;4.15;;;1.50;99.90;;;;;;5091094;28;20036;-44
2022/01/06 00:43:49;;;;;;;42.08;3.47;;;1.60;99.90;;;;;;5091134;28;20085;-45
2022/01/06 00:46:14;;;;;;;36.63;2.13;;;1.70;99.90;;;;;;5091468;28;20036;-44
2022/01/06 00:48:40;;;;;;;23.42;1.90;;;1.80;99.90;;;;;;5090838;28;20070;-44
2022/01/06 00:51:08;;;;;;;29.30;2.47;;;1.90;99.90;;;;;;5090664;28;20478;-44
2022/01/06 00:53:35;;;;;;;26.13;4.30;;;1.80;99.90;;;;;;5090468;28;20063;-44
2022/01/06 00:56:00;;;;;;;34.15;2.92;;;1.90;99.90;;;;;;5090442;28;20059;-44
2022/01/06 00:58:26;;;;;;;25.25;2.15;;;1.80;99.90;;;;;;5090788;28;20036;-44
2022/01/06 01:00:52;;;;;;;31.27;3.10;;;1.80;99.90;;;;;;5090224;28;20493;-44
2022/01/06 01:03:20;;;;;;;33.83;2.25;;;2.10;99.90;;;;;;5089871;28;20075;-44
2022/01/06 01:05:48;;;;;;;34.67;3.15;;;1.70;99.90;;;;;;5090103;28;20054;-44
2022/01/06 01:08:14;;;;;;;22.13;1.55;;;1.60;99.90;;;;;;5090663;28;20044;-44
2022/01/06 01:10:42;;;;;;;29.73;2.40;;;1.40;99.90;;;;;;5089727;28;20425;-44
2022/01/06 01:13:12;;;;;;;32.33;2.10;;;1.40;99.90;;;;;;5090503;28;20477;-44
2022/01/06 01:15:51;;;;;;;33.72;2.22;;;1.40;99.90;;;;;;5090659;28;20059;-44
2022/01/06 01:18:21;;;;;;;21.33;2.22;;;1.10;99.90;;;;;;5091007;28;20101;-45
2022/01/06 01:20:48;;;;;;;39.60;3.38;;;1.00;99.90;;;;;;5090037;28;20054;-44
2022/01/06 01:23:15;;;;;;;28.60;2.05;;;1.10;99.90;;;;;;5090406;28;20093;-44
2022/01/06 01:25:41;;;;;;;20.42;1.30;;;0.90;99.90;;;;;;5089958;28;20054;-44
2022/01/06 01:28:10;;;;;;;27.80;2.42;;;1.00;99.90;;;;;;5090182;28;20728;-44
2022/01/06 01:31:00;;;;;;;32.75;2.22;;;1.00;99.90;;;;;;5090008;28;20052;-44
2022/01/06 01:33:26;;;;;;;35.08;2.83;;;1.00;99.90;;;;;;5090234;28;20105;-44
2022/01/06 01:35:51;;;;;;;22.60;1.73;;;0.90;99.90;;;;;;5089806;28;20039;-44
2022/01/06 01:38:17;;;;;;;20.13;2.08;;;1.00;99.90;;;;;;5087410;28;20182;-44
2022/01/06 01:40:43;;;;;;;33.97;1.60;;;0.90;99.90;;;;;;5089814;28;20036;-44
2022/01/06 01:43:08;;;;;;;21.42;1.83;;;0.90;99.90;;;;;;5090053;28;20047;-44
2022/01/06 01:45:34;;;;;;;33.63;1.98;;;0.90;99.90;;;;;;5090247;28;20040;-44
2022/01/06 01:48:06;;;;;;;31.95;2.05;;;0.80;99.90;;;;;;5089535;28;20044;-44
2022/01/06 01:50:32;;;;;;;25.45;2.58;;;;;;;;;;5089917;28;20101;-44
2022/01/06 01:52:58;;;;;;;21.05;2.05;;;0.90;99.90;;;;;;5089376;28;20490;-44
2022/01/06 01:55:34;;;;;;;39.58;2.22;;;0.80;99.90;;;;;;5090053;28;20047;-44
2022/01/06 01:58:00;;;;;;;29.73;2.13;;;1.00;99.90;;;;;;5089889;28;20101;-44
2022/01/06 02:00:28;;;;;;;29.23;3.22;;;0.80;99.90;;;;;;5089893;28;20047;-44
2022/01/06 02:02:54;;;;;;;28.40;2.53;;;0.80;99.90;;;;;;5089192;28;20032;-44
2022/01/06 02:05:26;;;;;;;18.85;1.50;;;0.70;99.90;;;;;;5089525;28;20207;-44
2022/01/06 02:07:53;;;;;;;31.90;1.77;;;0.60;99.90;;;;;;5089922;28;20054;-44
2022/01/06 02:10:20;;;;;;;30.48;1.60;;;0.50;99.90;;;;;;5089544;28;20084;-44
2022/01/06 02:12:48;;;;;;;27.98;1.80;;;0.40;99.90;;;;;;5089523;28;20069;-44
2022/01/06 02:15:14;;;;;;;31.58;2.50;;;0.30;99.90;;;;;;5089638;28;20044;-44
2022/01/06 02:17:41;;;;;;;22.67;1.85;;;0.20;99.90;;;;;;5089841;28;20044;-44
2022/01/06 02:20:09;;;;;;;23.60;1.27;;;0.20;99.90;;;;;;5089838;28;20057;-44
2022/01/06 02:22:35;;;;;;;31.45;2.25;;;0.10;99.90;;;;;;5091784;28;20047;-44
2022/01/06 02:25:32;;;;;;;25.90;2.35;;;0.00;99.90;;;;;;5093618;28;20401;-45
2022/01/06 02:28:02;;;;;;;26.42;2.00;;;0.00;99.90;;;;;;5093484;28;20047;-44
2022/01/06 02:30:28;;;;;;;28.58;2.13;;;-0.10;99.90;;;;;;5093829;28;20044;-43
2022/01/06 02:32:55;;;;;;;32.92;3.72;;;-0.10;99.90;;;;;;5093232;28;20088;-46
2022/01/06 02:35:24;;;;;;;27.38;1.63;;;-0.20;99.90;;;;;;5093280;28;20490;-44
2022/01/06 02:37:50;;;;;;;18.58;1.35;;;-0.20;99.90;;;;;;5085205;28;20048;-44
2022/01/06 02:40:23;;;;;;;25.02;2.63;;;-0.30;99.90;;;;;;5072939;28;20486;-44
2022/01/06 02:42:52;;;;;;;32.30;2.13;;;-0.30;99.90;;;;;;5073111;28;20052;-45
2022/01/06 02:45:19;;;;;;;32.70;2.40;;;-0.20;99.90;;;;;;5073063;28;20429;-43
2022/01/06 02:47:47;;;;;;;34.05;1.83;;;-0.20;99.90;;;;;;5072881;28;20043;-43
2022/01/06 02:50:14;;;;;;;20.83;2.47;;;-0.10;99.90;;;;;;5072567;28;20406;-44
2022/01/06 02:52:40;;;;;;;28.50;2.30;;;0.00;99.90;;;;;;5072753;28;20068;-44
2022/01/06 02:55:08;;;;;;;18.45;1.27;;;0.00;99.90;;;;;;5072520;28;20461;-44
2022/01/06 02:57:33;;;;;;;28.17;1.65;;;0.10;99.90;;;;;;5072571;28;20047;-43
2022/01/06 02:59:59;;;;;;;22.65;1.77;;;0.20;99.90;;;;;;5072877;28;20048;-43
2022/01/06 03:02:26;;;;;;;29.27;3.10;;;0.10;99.90;;;;;;5072754;28;20060;-43
2022/01/06 03:04:52;;;;;;;26.48;1.58;;;0.30;99.90;;;;;;5072516;28;20130;-45
2022/01/06 03:07:18;;;;;;;30.02;1.98;;;0.20;99.90;;;;;;5072361;28;20048;-43
2022/01/06 03:09:51;;;;;;;34.47;2.20;;;0.20;99.90;;;;;;5072517;28;20052;-44
2022/01/06 03:12:27;;;;;;;23.77;1.98;;;0.10;99.90;;;;;;5072136;28;20036;-44
2022/01/06 03:14:53;;;;;;;25.80;2.08;;;0.00;99.90;;;;;;5072371;28;20403;-44
2022/01/06 03:17:19;;;;;;;26.30;3.05;;;0.00;99.90;;;;;;5071898;28;20048;-44
2022/01/06 03:19:45;;;;;;;24.05;3.80;;;-0.10;99.90;;;;;;5072548;28;20743;-43
2022/01/06 03:22:10;;;;;;;21.95;1.75;;;-0.20;99.90;;;;;;5071671;28;20053;-43
2022/01/06 03:24:36;;;;;;;25.15;2.53;;;-0.20;99.90;;;;;;5072259;28;20140;-43
2022/01/06 03:27:02;;;;;;;22.90;1.95;;;-0.20;99.90;;;;;;5071695;28;20123;-44
2022/01/06 03:29:27;;;;;;;39.95;2.60;;;0.00;99.90;;;;;;5072099;28;20048;-43
2022/01/06 03:31:53;;;;;;;29.52;2.72;;;-0.20;99.90;;;;;;5072422;28;20044;-43
2022/01/06 03:34:19;;;;;;;19.02;1.67;;;-0.30;99.90;;;;;;5071115;28;20461;-43
2022/01/06 03:36:45;;;;;;;29.40;2.60;;;-0.40;99.90;;;;;;5072095;28;20419;-43
2022/01/06 03:39:10;;;;;;;33.13;3.20;;;-0.40;99.90;;;;;;5086301;28;20118;-43
2022/01/06 03:41:36;;;;;;;28.27;2.35;;;-0.40;99.90;;;;;;5090673;28;20058;-43
2022/01/06 03:44:02;;;;;;;23.75;1.38;;;-0.40;99.90;;;;;;5091894;28;20188;-45
2022/01/06 03:46:28;;;;;;;26.00;2.78;;;-0.50;99.90;;;;;;5091956;28;20480;-44
2022/01/06 03:48:53;;;;;;;22.60;2.42;;;-0.50;99.90;;;;;;5092368;28;20043;-43
2022/01/06 03:51:20;;;;;;;35.78;2.63;;;-0.50;99.90;;;;;;5091683;28;20555;-43
2022/01/06 03:53:47;;;;;;;24.80;1.70;;;-0.60;99.90;;;;;;5091714;28;20060;-43
2022/01/06 03:56:13;;;;;;;32.08;2.47;;;-0.50;99.90;;;;;;5091631;28;20043;-43
2022/01/06 03:58:40;;;;;;;21.05;1.45;;;-0.50;99.90;;;;;;5091592;28;20088;-43
2022/01/06 04:01:07;;;;;;;26.83;1.92;;;-0.50;99.90;;;;;;5091499;28;20067;-45
2022/01/06 04:03:32;;;;;;;36.00;2.42;;;-0.50;99.90;;;;;;5091846;28;20048;-44
2022/01/06 04:05:58;;;;;;;23.10;2.00;;;-0.60;99.90;;;;;;5090605;28;20481;-43
2022/01/06 04:08:24;;;;;;;22.63;3.15;;;-0.50;99.90;;;;;;5091495;28;20128;-43
2022/01/06 04:10:51;;;;;;;35.50;2.55;;;-0.70;99.90;;;;;;5091515;28;20141;-43
2022/01/06 04:13:16;;;;;;;24.13;2.58;;;-0.70;99.90;;;;;;5090984;28;20028;-44
2022/01/06 04:15:44;;;;;;;34.35;2.00;;;-0.90;99.90;;;;;;5091601;28;20810;-43
2022/01/06 04:18:10;;;;;;;25.92;2.22;;;-0.90;99.90;;;;;;5091214;28;20051;-45
2022/01/06 04:20:35;;;;;;;35.60;3.33;;;-1.00;99.90;;;;;;5091775;28;20040;-44
2022/01/06 04:23:01;;;;;;;30.80;2.70;;;-1.10;99.90;;;;;;5091400;28;20437;-43
2022/01/06 04:25:27;;;;;;;28.45;2.17;;;-1.10;99.90;;;;;;5091378;28;20130;-45
2022/01/06 04:27:52;;;;;;;31.30;3.40;;;-1.20;99.90;;;;;;5091458;28;20372;-43
2022/01/06 04:30:18;;;;;;;24.60;2.42;;;-1.20;99.90;;;;;;5091054;28;20051;-43
2022/01/06 04:32:44;;;;;;;33.47;3.25;;;-1.30;99.90;;;;;;5091363;28;20040;-43
2022/01/06 04:35:10;;;;;;;31.95;1.88;;;-0.90;99.90;;;;;;5091038;28;20039;-44
2022/01/06 04:37:36;;;;;;;27.20;2.22;;;-0.60;99.90;;;;;;5088861;28;20044;-44
2022/01/06 04:40:02;;;;;;;26.58;1.92;;;-0.50;99.90;;;;;;5090850;28;20081;-43
2022/01/06 04:42:28;;;;;;;22.70;1.20;;;-0.50;99.90;;;;;;5090563;28;20036;-43
2022/01/06 04:44:53;;;;;;;30.88;2.75;;;-0.50;99.90;;;;;;5091437;28;20110;-44
2022/01/06 04:47:19;;;;;;;32.22;2.10;;;-0.50;99.90;;;;;;5090633;28;20119;-43
2022/01/06 04:49:45;;;;;;;25.00;1.75;;;-0.60;99.90;;;;;;5091025;28;20482;-43
2022/01/06 04:52:10;;;;;;;18.35;1.90;;;-0.60;99.90;;;;;;5090732;28;20071;-44
2022/01/06 04:54:36;;;;;;;23.70;1.70;;;-0.60;99.90;;;;;;5090386;28;20040;-43
2022/01/06 04:57:02;;;;;;;31.00;1.75;;;-0.60;99.90;;;;;;5090570;28;20044;-44
2022/01/06 04:59:27;;;;;;;27.55;2.15;;;-0.60;99.90;;;;;;5090314;28;20131;-43
2022/01/06 05:01:53;;;;;;;32.78;2.25;;;-0.60;99.90;;;;;;5090777;28;20118;-43
2022/01/06 05:04:19;;;;;;;35.00;2.85;;;-0.60;99.90;;;;;;5090368;28;20036;-44
2022/01/06 05:06:45;;;;;;;34.85;1.90;;;-0.60;99.90;;;;;;5090795;28;20043;-43
2022/01/06 05:09:10;;;;;;;25.85;2.10;;;-0.60;99.90;;;;;;5090704;28;20596;-43
2022/01/06 05:11:36;;;;;;;32.42;3.38;;;-0.60;99.90;;;;;;5090224;28;20039;-43
2022/01/06 05:14:02;;;;;;;32.90;2.13;;;-0.60;99.90;;;;;;5089923;28;20044;-42
2022/01/06 05:16:27;;;;;;;23.90;2.17;;;-0.70;99.90;;;;;;5066644;28;20036;-44
2022/01/06 05:18:53;;;;;;;21.17;2.60;;;-0.70;99.90;;;;;;5058845;28;20051;-43
2022/01/06 05:21:19;;;;;;;27.80;2.65;;;-0.60;99.90;;;;;;5067493;28;20486;-43
2022/01/06 05:23:44;;;;;;;28.17;2.47;;;-0.70;99.90;;;;;;5074199;28;20032;-41
2022/01/06 05:26:10;;;;;;;39.25;2.78;;;-0.70;99.90;;;;;;5070291;28;20124;-43
2022/01/06 05:28:36;;;;;;;33.25;2.53;;;0.30;99.90;;;;;;5072328;28;20032;-44
2022/01/06 05:31:03;;;;;;;35.38;3.63;;;-0.70;99.90;;;;;;5071658;28;20478;-38
2022/01/06 05:33:28;;;;;;;29.73;2.55;;;-0.70;99.90;;;;;;5072717;28;20036;-42
2022/01/06 05:35:54;;;;;;;26.48;2.15;;;-0.70;99.90;;;;;;5072028;28;20083;-42
2022/01/06 05:38:20;;;;;;;30.90;2.42;;;-0.50;99.90;;;;;;5072263;28;20040;-44
2022/01/06 05:40:46;;;;;;;26.17;2.03;;;-0.70;99.90;;;;;;5070248;28;20127;-42
2022/01/06 05:43:11;;;;;;;26.98;2.05;;;-0.70;99.90;;;;;;5070086;28;20462;-40
2022/01/06 05:45:37;;;;;;;27.05;2.70;;;-0.70;99.90;;;;;;5072408;28;20470;-39
2022/01/06 05:48:03;;;;;;;30.35;2.13;;;-0.70;99.90;;;;;;5069500;28;20497;-41
2022/01/06 05:50:29;;;;;;;25.58;2.50;;;-0.70;99.90;;;;;;5070316;28;20037;-46
2022/01/06 05:52:55;;;;;;;28.73;1.60;;;-0.70;99.90;;;;;;5072473;28;20050;-40
2022/01/06 05:55:22;;;;;;;31.13;2.83;;;-0.70;99.90;;;;;;5069946;28;20106;-40
2022/01/06 05:57:50;;;;;;;27.52;4.22;;;-0.80;99.90;;;;;;5073469;28;20036;-41
2022/01/06 06:00:16;;;;;;;22.70;2.35;;;-0.70;99.90;;;;;;5071062;28;20037;-40
2022/01/06 06:02:42;;;;;;;22.20;2.53;;;-0.80;99.90;;;;;;5069213;28;20174;-40
2022/01/06 06:05:08;;;;;;;33.33;2.30;;;-0.80;99.90;;;;;;5071096;28;20514;-40
2022/01/06 06:07:33;;;;;;;28.48;1.85;;;-0.70;99.90;;;;;;5069584;28;20067;-44
2022/01/06 06:09:59;;;;;;;22.92;2.45;;;-0.80;99.90;;;;;;5069783;28;20052;-43
2022/01/06 06:12:25;;;;;;;24.23;1.52;;;-0.80;99.90;;;;;;5068567;28;20048;-46
2022/01/06 06:14:50;;;;;;;37.28;1.92;;;-0.80;99.90;;;;;;5070058;28;20043;-43
2022/01/06 06:17:16;;;;;;;30.35;3.08;;;-0.80;99.90;;;;;;5070187;28;20505;-44
2022/01/06 06:19:42;;;;;;;28.40;2.67;;;-0.80;99.90;;;;;;5069799;28;20048;-43
2022/01/06 06:22:10;;;;;;;27.63;2.40;;;-0.80;99.90;;;;;;5069371;28;20048;-43
2022/01/06 06:24:36;;;;;;;28.08;3.30;;;-0.90;99.90;;;;;;5069171;28;20044;-44
2022/01/06 06:27:03;;;;;;;27.05;2.47;;;-0.90;99.90;;;;;;5069358;28;20108;-43
2022/01/06 06:29:29;;;;;;;35.70;3.25;;;-0.90;99.90;;;;;;5068991;28;20079;-43
2022/01/06 06:31:55;;;;;;;32.83;4.15;;;-0.90;99.90;;;;;;5069454;28;20072;-43
2022/01/06 06:34:20;;;;;;;35.38;3.08;;;-0.90;99.90;;;;;;5069324;28;20084;-43
2022/01/06 06:36:46;;;;;;;27.35;2.10;;;-0.90;99.90;;;;;;5068993;28;20044;-43
2022/01/06 06:39:12;;;;;;;40.05;3.25;;;-0.90;99.90;;;;;;5084237;28;20048;-43
2022/01/06 06:41:38;;;;;;;31.63;3.63;;;-0.90;99.90;;;;;;5089149;28;20039;-43
2022/01/06 06:44:04;;;;;;;33.10;2.63;;;-0.90;99.90;;;;;;5089092;28;20108;-43
2022/01/06 06:46:30;;;;;;;32.67;2.42;;;-0.90;99.90;;;;;;5089485;28;20128;-44
2022/01/06 06:48:55;;;;;;;37.25;2.90;;;-0.90;99.90;;;;;;5089127;28;20505;-43
2022/01/06 06:51:21;;;;;;;23.10;3.08;;;-1.00;99.90;;;;;;5089322;28;20048;-43
2022/01/06 06:53:47;;;;;;;34.75;2.42;;;-1.00;99.90;;;;;;5088705;28;20063;-43
2022/01/06 06:56:12;;;;;;;24.27;2.30;;;-1.00;99.90;;;;;;5089203;28;20489;-43
2022/01/06 06:58:38;;;;;;;24.45;2.22;;;-1.00;99.90;;;;;;5089133;28;20455;-43
2022/01/06 07:01:04;;;;;;;40.42;4.22;;;-1.00;99.90;;;;;;5089339;28;20047;-43
2022/01/06 07:03:30;;;;;;;25.92;2.42;;;-1.00;99.90;;;;;;5089124;28;20553;-43
2022/01/06 07:05:55;;;;;;;29.00;2.63;;;-1.00;99.90;;;;;;5089171;28;20042;-44
2022/01/06 07:08:21;;;;;;;44.00;3.00;;;-1.00;99.90;;;;;;5087956;28;20079;-43
2022/01/06 07:10:46;;;;;;;26.20;2.28;;;-1.00;99.90;;;;;;5092433;28;20051;-43
2022/01/06 07:13:16;;;;;;;20.00;3.20;;;-1.10;99.90;;;;;;5092750;28;20485;-43
2022/01/06 07:15:43;;;;;;;34.90;2.25;;;-1.00;99.90;;;;;;5092337;28;20044;-43
2022/01/06 07:18:08;;;;;;;38.05;3.83;;;-0.90;99.90;;;;;;5092780;28;20097;-43
2022/01/06 07:20:34;;;;;;;30.27;2.70;;;-1.10;99.90;;;;;;5092707;28;20047;-43
2022/01/06 07:23:00;;;;;;;24.63;2.60;;;-1.20;99.90;;;;;;5092598;28;20077;-43
2022/01/06 07:25:26;;;;;;;32.30;2.67;;;-1.10;99.90;;;;;;5092939;28;20072;-43
2022/01/06 07:27:51;;;;;;;36.47;2.97;;;-1.10;99.90;;;;;;5092237;28;20047;-43
2022/01/06 07:30:17;;;;;;;30.30;3.53;;;-1.10;99.90;;;;;;5092633;28;20043;-43
2022/01/06 07:32:48;;;;;;;35.20;3.55;;;-1.20;99.90;;;;;;5092353;28;20036;-43
2022/01/06 07:35:15;;;;;;;28.02;3.28;;;-1.20;99.90;;;;;;5092446;28;20039;-43
2022/01/06 07:37:41;;;;;;;34.60;2.88;;;-1.20;99.90;;;;;;5089839;28;20430;-43
2022/01/06 07:40:08;;;;;;;51.75;5.28;;;-1.30;99.90;;;;;;5092561;28;20032;-42
2022/01/06 07:42:34;;;;;;;29.83;3.50;;;-1.30;99.90;;;;;;5092506;28;20040;-43
2022/01/06 07:45:00;;;;;;;24.80;3.10;;;-1.20;99.90;;;;;;5092028;28;20718;-43
2022/01/06 07:47:28;;;;;;;32.10;2.55;;;-1.30;99.90;;;;;;5092162;28;20560;-43
2022/01/06 07:49:54;;;;;;;31.77;3.20;;;-1.30;99.90;;;;;;5090570;28;20052;-43
2022/01/06 07:52:22;;;;;;;30.48;3.58;;;-1.20;99.90;;;;;;5092091;28;20032;-43
2022/01/06 07:54:48;;;;;;;35.55;2.67;;;-1.20;99.90;;;;;;5091483;28;20440;-43
2022/01/06 07:57:14;;;;;;;32.00;4.05;;;-1.20;99.90;;;;;;5092094;28;20032;-43
2022/01/06 07:59:40;;;;;;;32.63;2.85;;;-1.20;99.90;;;;;;5091910;28;20051;-43
2022/01/06 08:02:08;;;;;;;29.27;3.97;;;-1.20;99.90;;;;;;5092626;28;20039;-43
2022/01/06 08:04:34;;;;;;;31.05;2.60;;;-1.10;99.90;;;;;;5090756;28;20071;-45
2022/01/06 08:07:00;;;;;;;25.40;2.20;;;-1.00;99.90;;;;;;5091223;28;20529;-43
2022/01/06 08:09:26;;;;;;;40.28;2.63;;;-1.00;99.90;;;;;;5089742;28;20432;-43
2022/01/06 08:11:52;;;;;;;35.50;3.00;;;-1.00;99.90;;;;;;5090872;28;20048;-43
2022/01/06 08:14:17;;;;;;;34.83;3.22;;;-0.90;99.90;;;;;;5091340;28;20043;-42
2022/01/06 08:16:43;;;;;;;30.80;3.20;;;-0.90;99.90;;;;;;5091194;28;20031;-43
2022/01/06 08:19:09;;;;;;;31.80;3.83;;;-3.10;99.90;;;;;;5090025;28;20048;-44
2022/01/06 08:21:35;;;;;;;42.88;2.95;;;-0.80;99.90;;;;;;5091275;28;20048;-43
2022/01/06 08:24:00;;;;;;;33.83;4.45;;;-0.80;99.90;;;;;;5091158;28;20051;-43
2022/01/06 08:26:26;;;;;;;35.60;3.97;;;-0.60;99.90;;;;;;5091380;28;20500;-43
2022/01/06 08:28:52;;;;;;;40.20;4.10;;;0.50;99.90;;;;;;5089905;28;20043;-43
2022/01/06 08:31:17;;;;;;;23.67;2.55;;;-0.70;99.90;;;;;;5091101;28;20048;-43
2022/01/06 08:33:45;;;;;;;46.10;3.85;;;-0.60;99.90;;;;;;5091164;28;20047;-43
2022/01/06 08:36:10;;;;;;;28.48;3.25;;;-0.60;99.90;;;;;;5091004;28;20051;-43
2022/01/06 08:38:36;;;;;;;48.08;4.07;;;-0.60;99.90;;;;;;5088239;28;20051;-43
2022/01/06 08:41:02;;;;;;;22.38;3.20;;;-0.60;99.90;;;;;;5091000;28;20036;-38
2022/01/06 08:43:28;;;;;;;38.08;3.35;;;-0.40;99.90;;;;;;5091402;28;20091;-38
2022/01/06 08:45:55;;;;;;;25.55;3.50;;;-0.50;99.90;;;;;;5091252;28;20087;-38
2022/01/06 08:48:21;;;;;;;35.63;3.70;;;-0.50;99.90;;;;;;5090914;28;20047;-37
2022/01/06 08:50:47;;;;;;;27.08;3.38;;;-0.50;99.90;;;;;;5090772;28;20044;-36
2022/01/06 08:53:13;;;;;;;28.40;4.75;;;-0.50;99.90;;;;;;5090343;28;20452;-36
2022/01/06 08:55:38;;;;;;;33.97;3.55;;;-0.50;99.90;;;;;;5060521;28;20158;-38
2022/01/06 08:58:04;;;;;;;31.13;3.35;;;-0.50;99.90;;;;;;5067364;28;20052;-37
2022/01/06 09:00:30;;;;;;;25.08;3.97;;;-0.30;99.90;;;;;;5067126;28;20153;-37
2022/01/06 09:02:57;;;;;;;33.88;4.32;;;-0.40;99.90;;;;;;5065588;28;20056;-37
2022/01/06 09:05:23;;;;;;;41.50;3.70;;;-0.30;99.90;;;;;;5067208;28;20048;-37
2022/01/06 09:07:49;;;;;;;46.65;3.20;;;-0.30;99.90;;;;;;5067074;28;20502;-38
2022/01/06 09:10:15;;;;;;;32.58;3.15;;;-0.30;99.90;;;;;;5066985;28;20118;-37
2022/01/06 09:12:42;;;;;;;30.38;3.13;;;-0.30;99.90;;;;;;5067567;28;20558;-36
2022/01/06 09:15:09;;;;;;;31.05;3.47;;;-0.30;99.90;;;;;;5066778;28;20083;-37
2022/01/06 09:17:36;;;;;;;42.50;4.30;;;-0.20;99.90;;;;;;5087393;28;20576;-37
2022/01/06 09:20:05;;;;;;;35.30;3.58;;;-0.20;99.90;;;;;;5087159;28;20047;-38
2022/01/06 09:22:31;;;;;;;36.38;3.92;;;-0.20;99.90;;;;;;5087066;28;20056;-38
2022/01/06 09:24:57;;;;;;;29.95;3.17;;;-0.20;99.90;;;;;;5085858;28;20430;-38
2022/01/06 09:27:23;;;;;;;29.25;3.53;;;-0.10;99.90;;;;;;5087021;28;20122;-38
2022/01/06 09:29:52;;;;;;;29.40;4.40;;;-0.10;99.90;;;;;;5087107;28;20047;-39
2022/01/06 09:32:18;;;;;;;34.78;3.35;;;-0.10;99.90;;;;;;5086506;28;20440;-39
2022/01/06 09:34:44;;;;;;;26.73;4.28;;;0.00;99.90;;;;;;5087405;28;20040;-39
2022/01/06 09:37:10;;;;;;;26.80;3.53;;;0.10;99.90;;;;;;5087088;28;20035;-38
2022/01/06 09:39:35;;;;;;;33.88;3.45;;;0.20;99.90;;;;;;5087196;28;20391;-39
2022/01/06 09:42:01;;;;;;;31.23;3.70;;;0.30;99.90;;;;;;5086644;28;20043;-39
2022/01/06 09:44:28;;;;;;;31.30;4.25;;;0.40;99.90;;;;;;5087305;28;20119;-39
2022/01/06 09:46:57;;;;;;;44.00;4.75;;;0.50;99.90;;;;;;5086863;28;20040;-39
2022/01/06 09:49:23;;;;;;;46.42;3.85;;;0.50;99.90;;;;;;5085039;28;20048;-38
2022/01/06 09:51:51;;;;;;;37.03;3.80;;;0.50;99.90;;;;;;5087069;28;20079;-38
2022/01/06 09:54:18;;;;;;;43.03;4.28;;;0.50;99.90;;;;;;5065340;28;20063;-38
2022/01/06 09:56:43;;;;;;;24.45;3.25;;;0.40;99.90;;;;;;5085288;28;20052;-38
2022/01/06 09:59:09;;;;;;;45.70;5.60;;;0.30;99.90;;;;;;5086525;28;20066;-38
2022/01/06 10:01:35;;;;;;;33.78;4.10;;;0.40;99.90;;;;;;5086942;28;20044;-40
2022/01/06 10:04:01;;;;;;;33.95;4.20;;;0.40;99.90;;;;;;5086570;28;20084;-41
2022/01/06 10:06:28;;;;;;;36.70;4.50;;;0.40;99.90;;;;;;5086529;28;20438;-41
2022/01/06 10:09:01;;;;;;;26.90;3.42;;;0.50;99.90;;;;;;5086937;28;20098;-40
2022/01/06 10:11:34;;;;;;;32.15;4.80;;;0.50;99.90;;;;;;5086363;28;20129;-40
2022/01/06 10:14:08;;;;;;;39.35;2.90;;;0.50;99.90;;;;;;5086283;28;20087;-41
2022/01/06 10:16:37;;;;;;;33.72;4.55;;;0.40;99.90;;;;;;5087102;28;20118;-39
2022/01/06 10:19:03;;;;;;;30.08;3.63;;;0.40;99.90;;;;;;5086486;28;20075;-42
2022/01/06 10:21:31;;;;;;;34.65;3.53;;;1.00;99.90;;;;;;5086376;28;20520;-42
2022/01/06 10:24:02;;;;;;;28.38;3.55;;;0.40;99.90;;;;;;5086338;28;20588;-41
2022/01/06 10:26:28;;;;;;;33.88;4.53;;;0.40;99.90;;;;;;5086881;28;20080;-42
2022/01/06 10:28:54;;;;;;;28.15;4.07;;;0.40;99.90;;;;;;5077771;28;20079;-43
2022/01/06 10:31:24;;;;;;;25.58;3.83;;;0.50;99.90;;;;;;5077233;28;20034;-43
2022/01/06 10:33:50;;;;;;;32.20;3.72;;;0.50;99.90;;;;;;5086408;28;20040;-42
2022/01/06 10:36:16;;;;;;;33.92;4.28;;;0.70;99.90;;;;;;5085864;28;20436;-42
2022/01/06 10:38:41;;;;;;;37.28;4.88;;;0.80;99.90;;;;;;5071500;28;20410;-43
2022/01/06 10:41:16;;;;;;;35.33;4.85;;;-0.20;99.90;;;;;;5081269;28;20090;-43
2022/01/06 10:43:51;;;;;;;28.63;4.03;;;1.00;99.90;;;;;;5088210;28;20044;-41
2022/01/06 10:46:39;;;;;;;32.97;4.63;;;1.10;99.90;;;;;;5089612;28;20058;-42
2022/01/06 10:49:20;;;;;;;35.30;4.18;;;1.10;99.90;;;;;;5089822;28;20575;-41
2022/01/06 10:51:48;;;;;;;33.15;4.20;;;1.20;99.90;;;;;;5089644;28;20085;-40
2022/01/06 10:54:21;;;;;;;37.85;4.40;;;1.30;99.90;;;;;;5078365;28;20091;-45
2022/01/06 10:56:59;;;;;;;27.70;6.10;;;1.30;99.90;;;;;;5090385;28;20393;-44
2022/01/06 10:59:34;;;;;;;29.35;3.47;;;1.20;99.90;;;;;;5088358;28;20040;-45
2022/01/06 11:02:01;;;;;;;38.28;3.55;;;1.20;99.90;;;;;;5089513;28;20044;-45
2022/01/06 11:04:28;;;;;;;23.65;2.50;;;1.20;99.90;;;;;;5089605;28;20048;-44
2022/01/06 11:06:54;;;;;;;33.70;3.47;;;1.30;99.90;;;;;;5088857;28;20032;-42
2022/01/06 11:09:20;;;;;;;29.08;3.38;;;1.40;99.90;;;;;;5089385;28;20044;-43
2022/01/06 11:14:25;;;;;;;37.25;3.08;;;1.60;99.90;;;;;;5089507;28;20047;-43
2022/01/06 11:16:51;;;;;;;36.40;3.28;;;1.80;99.90;;;;;;5089436;28;20048;-44
2022/01/06 11:19:17;;;;;;;39.88;3.67;;;1.90;99.90;;;;;;5089232;28;20043;-47
2022/01/06 11:21:48;;;;;;;33.58;3.00;;;1.90;99.90;;;;;;5089669;28;20101;-44
2022/01/06 11:24:18;;;;;;;26.23;3.40;;;2.00;99.90;;;;;;5089805;28;20105;-43
2022/01/06 11:26:57;;;;;;;27.17;3.28;;;2.00;99.90;;;;;;5087676;28;20054;-44
2022/01/06 11:29:34;;;;;;;30.85;4.28;;;2.00;99.90;;;;;;5048504;28;20425;-45
2022/01/06 11:32:02;;;;;;;27.40;2.35;;;2.10;99.90;;;;;;5049468;28;20045;-44
2022/01/06 11:34:35;;;;;;;24.65;4.18;;;2.20;99.90;;;;;;5050002;28;20045;-45
2022/01/06 11:37:10;;;;;;;36.35;3.90;;;2.20;99.90;;;;;;5049785;28;20080;-44
2022/01/06 11:39:36;;;;;;;32.10;3.03;;;2.20;99.90;;;;;;5068814;28;20124;-45
2022/01/06 11:42:13;;;;;;;22.38;2.72;;;2.30;99.90;;;;;;5068813;28;20044;-44
2022/01/06 11:44:58;;;;;;;28.92;3.28;;;2.40;99.90;;;;;;5068994;28;20044;-45
2022/01/06 11:47:38;;;;;;;25.15;3.35;;;2.50;99.90;;;;;;5068866;28;20044;-45
2022/01/06 11:50:08;;;;;;;28.00;3.50;;;2.60;99.90;;;;;;5068827;28;20048;-44
2022/01/06 11:52:34;;;;;;;23.58;3.92;;;2.60;99.90;;;;;;5068178;28;20040;-44
2022/01/06 11:55:04;;;;;;;34.47;3.65;;;2.70;99.90;;;;;;5048996;28;20187;-44
2022/01/06 11:57:35;;;;;;;31.20;3.63;;;2.80;99.90;;;;;;5068187;28;20036;-45
2022/01/06 12:00:13;;;;;;;40.83;3.58;;;2.90;99.90;;;;;;5068553;28;20520;-47
2022/01/06 12:02:40;;;;;;;26.48;3.38;;;2.90;99.90;;;;;;5068867;28;20044;-43
2022/01/06 12:05:06;;;;;;;27.02;2.60;;;4.20;99.90;;;;;;5068531;28;20375;-44
2022/01/06 12:07:32;;;;;;;25.88;3.05;;;3.10;99.90;;;;;;5068107;28;20067;-38
2022/01/06 12:10:06;;;;;;;29.67;3.72;;;3.20;99.90;;;;;;5068545;28;20044;-38
2022/01/06 12:12:37;;;;;;;22.23;3.08;;;3.20;99.90;;;;;;5068259;28;20045;-38
2022/01/06 12:15:14;;;;;;;30.83;3.10;;;3.30;99.90;;;;;;5069921;28;20048;-37
2022/01/06 12:17:53;;;;;;;32.65;2.80;;;3.20;99.90;;;;;;5071237;28;20032;-37
2022/01/06 12:20:27;;;;;;;33.13;2.40;;;3.10;99.90;;;;;;5071277;28;20123;-35
2022/01/06 12:22:54;;;;;;;30.67;5.20;;;3.40;99.90;;;;;;5069939;28;20098;-35
2022/01/06 12:25:25;;;;;;;24.23;4.18;;;3.50;99.90;;;;;;5071391;28;20497;-34
2022/01/06 12:27:54;;;;;;;21.08;2.20;;;3.50;99.90;;;;;;5071377;28;20101;-35
2022/01/06 12:30:22;;;;;;;27.27;3.65;;;3.60;99.90;;;;;;5071032;28;20469;-35
2022/01/06 12:32:56;;;;;;;26.85;2.88;;;3.60;99.90;;;;;;5071433;28;20109;-35
2022/01/06 12:35:38;;;;;;;32.25;2.65;;;3.60;99.90;;;;;;5071460;28;20401;-34
2022/01/06 12:38:04;;;;;;;26.55;2.75;;;4.10;99.90;;;;;;5076852;28;20048;-35
2022/01/06 12:40:35;;;;;;;23.83;3.05;;;3.70;99.90;;;;;;5091236;28;20047;-34
2022/01/06 12:43:17;;;;;;;24.48;2.00;;;3.70;99.90;;;;;;5091197;28;20496;-35
2022/01/06 12:45:43;;;;;;;;;;;3.70;99.90;;;;;;5091862;28;20139;-35
2022/01/06 12:48:13;;;;;;;21.33;2.28;;;3.70;99.90;;;;;;5091243;28;19919;-35
2022/01/06 12:50:47;;;;;;;23.23;3.13;;;3.80;99.90;;;;;;5090961;28;20178;-34
2022/01/06 12:53:35;;;;;;;27.50;3.13;;;3.80;99.90;;;;;;5090666;28;20044;-34